Laurel, Iowa
Current Conditions -  °F | °C
As of 1:35 PM on Thursday 27 Nov 2014 (Local Time) from KTNU Reporting Station
Clear Clear  
Wind Chill: -6°   Ceiling: Unl
Heat Index:   Visibility: 10mi
Dew Point: -4°   Wind: 8mph
Humidity: 61%   Direction: 300°WNW
Pressure: 30.48"   Gusts: NA
Location:  41.88°N, 92.92°W
Report Text: KTNU 271935Z AUTO 30007KT 10SM CLR M14/M20 A3048 RMK AO2
Loading
Personal Weather Stations






























Interactive Weather Map New forecast layout! Learn more

10-Day Weather Forecast

Advertisements
Track Severe Weather on mobile